Aérodrome :
LOGIN :

S'inscrire | Disclaimer

   EN    FR    IT 

 










Légende :    VFR   VFR Marginal   IFR   IFR Intensif   IFR Très Intensif
Visi : 
Plafond : 
>= 8 km
>= 3000ft
5 à 8 km
1000 à 3000 ft
1500m à 5 km
500 à 1000 ft
800 à 1500m
200 à 500 ft
< 800m
< 200 ft
Symboles :   Orages  Brouillard  Fortes neiges  Fortes précipitations  Vent > 20 kt
SIGMETs :   Divers  Orages  Givrage  Turbulence  Onde Orograph.  Cendres Volcan.






- Altitude de l'aérodrome : 80 ft
- Code IATA : LPL


EGGP - Liverpool John Lennon

DERNIER METAR :
  • 250550Z 25008KT 9999 -SHRA FEW018 SCT022 05/03 Q0999

METARs EXPIRÉS :
  • 250520Z 26014KT 9999 -SHRA FEW018 SCT022 05/02 Q0999
  • 250450Z 23004KT 160V260 9999 FEW032 04/01 Q0999
  • 250420Z 20006KT 160V240 9999 FEW032 05/02 Q0999
  • 250350Z 26011KT 9999 -SHRA SCT024 BKN030 05/02 Q1000
  • 250320Z 25008KT 220V290 9999 -SHRA SCT024 BKN030 05/03 Q1000
  • 250250Z 25010KT 9999 -SHRA SCT024 BKN030 05/03 Q1000 RERA

TAF TAF EGGP
Valide du 25 à 06h jusqu'au 26 à 06h UTC


250503Z 2506/2606 25010KT 9999 FEW012 SCT030
TEMPO 2506/2519 27018G30KT 7000 SHRA BKN012
PROB30
TEMPO 2509/2519 2000 SHRASN +SHGS BKN006 BKN015CB
TEMPO 2519/2606 29018G30KT 2000 SHRASN +SHGS BKN006 BKN015CB
PROB30
TEMPO 2522/2606 0600 SHSN BKN002
ATIS : +44 151 907 2000 (option 5 or ext 5150)
Météo : +44 871 750 5150



MET'MAP, la Météo Aéronautique d'un coup d'oeil ! - Copyright ORBIFLY Décembre 2007 - Disclaimer

ORBIFLY MET'MAP TEAM :

Programmation & Développement : Alexandra Zaïnal
Sur une idée originale de : Baudouin d'Aumeries
Assistance à la programmation : Marc-Olivier Méhu
Soutien technique & logistique : Manuel Goepfert

Contact : metmap@orbifly.com




SOURCES & CREDITS :

   NOAA